createdAt,value
2022-11-22T00:01:00.661Z,98472.97
2022-11-22T00:03:29.824Z,98459.34
2022-11-22T00:05:57.773Z,98450.16
2022-11-22T00:08:25.551Z,98442.75
2022-11-22T00:10:53.366Z,98455.22
2022-11-22T00:13:21.244Z,98445.03
2022-11-22T00:15:59.673Z,98431.22
2022-11-22T00:18:29.341Z,98417.50
2022-11-22T00:20:57.288Z,98441.78
2022-11-22T00:23:25.086Z,98417.50
2022-11-22T00:25:52.882Z,98420.31
2022-11-22T00:28:20.753Z,98422.28
2022-11-22T00:30:48.573Z,98437.72
2022-11-22T00:33:16.263Z,98443.75
2022-11-22T00:35:46.058Z,98433.94
2022-11-22T00:38:13.786Z,98438.19
2022-11-22T00:40:41.502Z,98440.47
2022-11-22T00:43:09.277Z,98438.00
2022-11-22T00:45:37.033Z,98432.25
2022-11-22T00:48:05.226Z,98442.25
2022-11-22T00:50:32.994Z,98432.88
2022-11-22T00:53:02.113Z,98441.56
2022-11-22T00:55:29.902Z,98435.50
2022-11-22T00:57:57.796Z,98425.97
2022-11-22T01:00:25.565Z,98423.19
2022-11-22T01:02:53.344Z,98444.22
2022-11-22T01:05:21.274Z,98441.25
2022-11-22T01:07:49.126Z,98434.69
2022-11-22T01:10:19.660Z,98427.94
2022-11-22T01:12:47.394Z,98437.13
2022-11-22T01:15:15.188Z,98439.13
2022-11-22T01:17:43.003Z,98446.72
2022-11-22T01:20:11.494Z,98434.53
2022-11-22T01:22:39.277Z,98431.41
2022-11-22T01:25:08.338Z,98442.94
2022-11-22T01:27:37.617Z,98445.41
2022-11-22T01:30:06.652Z,98431.59
2022-11-22T01:32:34.587Z,98448.00
2022-11-22T01:35:04.874Z,98456.53
2022-11-22T01:37:32.630Z,98464.44
2022-11-22T01:40:00.425Z,98460.97
2022-11-22T01:42:44.225Z,98470.34
2022-11-22T01:45:48.526Z,98452.59
2022-11-22T01:48:34.277Z,98455.72
2022-11-22T01:51:06.227Z,98462.13
2022-11-22T01:53:38.032Z,98461.16
2022-11-22T01:56:09.093Z,98469.69
2022-11-22T01:58:39.545Z,98475.78
2022-11-22T02:01:08.003Z,98479.56
2022-11-22T02:03:39.507Z,98458.88
2022-11-22T02:06:08.449Z,98477.28
2022-11-22T02:08:41.597Z,98479.59
2022-11-22T02:11:12.269Z,98493.06
2022-11-22T02:13:44.769Z,98481.72
2022-11-22T02:16:13.077Z,98483.66
2022-11-22T02:18:41.050Z,98494.84
2022-11-22T02:21:09.202Z,98486.97
2022-11-22T02:23:48.910Z,98504.41
2022-11-22T02:26:18.609Z,98513.72
2022-11-22T02:28:46.535Z,98504.19
2022-11-22T02:31:39.987Z,98501.44
2022-11-22T02:34:08.616Z,98503.25
2022-11-22T02:36:40.631Z,98509.81
2022-11-22T02:39:10.587Z,98500.00
2022-11-22T02:41:40.623Z,98506.19
2022-11-22T02:44:10.763Z,98511.78
2022-11-22T02:46:48.229Z,98512.78
2022-11-22T02:49:18.414Z,98508.19
2022-11-22T02:51:46.351Z,98519.69
2022-11-22T02:54:14.177Z,98506.22
2022-11-22T02:56:43.238Z,98509.00
2022-11-22T02:59:11.013Z,98522.81
2022-11-22T03:01:39.326Z,98504.44
2022-11-22T03:04:07.053Z,98510.50
2022-11-22T03:06:34.770Z,98517.91
2022-11-22T03:09:02.715Z,98521.84
2022-11-22T03:11:30.499Z,98516.59
2022-11-22T03:13:59.598Z,98523.66
2022-11-22T03:16:27.393Z,98529.56
2022-11-22T03:18:55.140Z,98524.63
2022-11-22T03:21:22.863Z,98524.63
2022-11-22T03:23:50.705Z,98530.53
2022-11-22T03:26:18.599Z,98533.31
2022-11-22T03:28:46.274Z,98545.97
2022-11-22T03:31:15.377Z,98536.41
2022-11-22T03:33:45.741Z,98547.59
2022-11-22T03:36:13.474Z,98558.09
2022-11-22T03:38:41.186Z,98565.28
2022-11-22T03:41:09.077Z,98558.38
2022-11-22T03:43:37.064Z,98545.56
2022-11-22T03:46:04.814Z,98562.31
2022-11-22T03:48:34.712Z,98564.31
2022-11-22T03:51:05.845Z,98572.19
2022-11-22T03:53:34.074Z,98576.25
2022-11-22T03:56:01.982Z,98577.09
2022-11-22T03:58:29.744Z,98575.13
2022-11-22T04:00:58.141Z,98577.75
2022-11-22T04:03:26.466Z,98577.09
2022-11-22T04:05:55.660Z,98579.03
2022-11-22T04:08:23.547Z,98575.59
2022-11-22T04:10:51.582Z,98564.56
2022-11-22T04:13:19.880Z,98577.03
2022-11-22T04:15:46.639Z,98490.25
2022-11-22T04:18:15.754Z,98576.06
2022-11-22T04:21:01.186Z,98580.34
2022-11-22T04:23:34.068Z,98569.81
2022-11-22T04:26:01.202Z,98572.81
2022-11-22T04:29:01.413Z,98580.69
2022-11-22T04:31:34.358Z,98582.78
2022-11-22T04:34:02.128Z,98586.91
2022-11-22T04:36:29.857Z,98586.25
2022-11-22T04:38:58.922Z,98588.19
2022-11-22T04:41:26.661Z,98585.41
2022-11-22T04:44:11.786Z,98588.56
2022-11-22T04:46:39.622Z,98585.25
2022-11-22T04:49:07.318Z,98596.59
2022-11-22T04:51:52.556Z,98591.50
2022-11-22T04:54:21.680Z,98550.03
2022-11-22T04:56:49.456Z,98595.41
2022-11-22T04:59:17.204Z,98586.34
2022-11-22T05:01:44.930Z,98582.44
2022-11-22T05:04:12.718Z,98592.41
2022-11-22T05:06:40.613Z,98571.34
2022-11-22T05:09:08.409Z,98590.75
2022-11-22T05:11:37.726Z,98591.06
2022-11-22T05:14:05.530Z,98596.84
2022-11-22T05:16:33.335Z,98596.00
2022-11-22T05:19:01.138Z,98571.66
2022-11-22T05:21:30.205Z,98595.00
2022-11-22T05:23:57.181Z,98593.69
2022-11-22T05:26:27.119Z,98566.00
2022-11-22T05:28:57.978Z,98602.53
2022-11-22T05:31:27.730Z,98607.56
2022-11-22T05:33:58.024Z,98616.94
2022-11-22T05:36:26.022Z,98619.72
2022-11-22T05:38:54.398Z,98623.31
2022-11-22T05:41:22.122Z,98624.13
2022-11-22T05:43:49.853Z,98634.63
2022-11-22T05:46:24.306Z,98639.06
2022-11-22T05:48:53.343Z,98642.50
2022-11-22T05:51:27.918Z,98645.28
2022-11-22T05:53:58.513Z,98638.88
2022-11-22T05:56:26.368Z,98640.41
2022-11-22T05:58:54.427Z,98649.78
2022-11-22T06:01:25.377Z,98651.59
2022-11-22T06:03:53.792Z,98648.31
2022-11-22T06:06:22.050Z,98636.13
2022-11-22T06:08:51.193Z,98649.28
2022-11-22T06:11:21.269Z,98650.28
2022-11-22T06:13:51.480Z,98661.56
2022-11-22T06:16:19.546Z,98651.75
2022-11-22T06:18:49.068Z,98654.59
2022-11-22T06:21:18.432Z,98654.44
2022-11-22T06:23:46.424Z,98661.84
2022-11-22T06:26:15.897Z,98653.97
2022-11-22T06:28:43.797Z,98650.31
2022-11-22T06:31:13.556Z,98659.38
2022-11-22T06:33:42.521Z,98655.41
2022-11-22T06:36:13.670Z,98660.00
2022-11-22T06:38:42.517Z,98660.84
2022-11-22T06:41:11.784Z,98660.53
2022-11-22T06:43:45.320Z,98650.53
2022-11-22T06:46:17.063Z,98660.44
2022-11-22T06:48:44.760Z,98653.16
2022-11-22T06:51:15.620Z,98671.03
2022-11-22T06:53:48.196Z,98681.53
2022-11-22T06:56:18.230Z,98676.13
2022-11-22T06:58:46.990Z,98682.34
2022-11-22T07:01:16.921Z,98667.25
2022-11-22T07:03:45.018Z,98684.69
2022-11-22T07:06:15.710Z,98679.78
2022-11-22T07:08:44.530Z,98681.91
2022-11-22T07:11:14.353Z,98672.06
2022-11-22T07:13:42.426Z,98683.53
2022-11-22T07:16:12.349Z,98691.22
2022-11-22T07:18:40.170Z,98684.16
2022-11-22T07:21:13.289Z,98696.16
2022-11-22T07:23:44.412Z,98701.41
2022-11-22T07:26:12.978Z,98692.03
2022-11-22T07:28:41.184Z,98696.81
2022-11-22T07:31:11.256Z,98702.38
2022-11-22T07:33:39.412Z,98683.31
2022-11-22T07:36:08.947Z,98697.50
2022-11-22T07:38:37.200Z,98682.06
2022-11-22T07:41:07.391Z,98697.81
2022-11-22T07:43:35.536Z,98698.31
2022-11-22T07:46:04.609Z,98700.44
2022-11-22T07:48:32.446Z,98705.69
2022-11-22T07:51:05.090Z,98697.34
2022-11-22T07:53:32.878Z,98703.25
2022-11-22T07:56:03.175Z,98706.38
2022-11-22T07:58:32.500Z,98717.84
2022-11-22T08:01:05.720Z,98711.47
2022-11-22T08:03:33.449Z,98714.91
2022-11-22T08:06:01.436Z,98720.84
2022-11-22T08:08:29.579Z,98703.72
2022-11-22T08:10:57.775Z,98719.19
2022-11-22T08:13:25.631Z,98720.84
2022-11-22T08:15:57.535Z,98723.31
2022-11-22T08:18:27.436Z,98735.94
2022-11-22T08:21:03.280Z,98707.16
2022-11-22T08:23:31.010Z,98736.28
2022-11-22T08:25:58.973Z,98739.28
2022-11-22T08:28:26.766Z,98734.03
2022-11-22T08:31:02.367Z,98727.97
2022-11-22T08:33:30.174Z,98731.34
2022-11-22T08:35:57.930Z,98744.19
2022-11-22T08:38:25.698Z,98741.41
2022-11-22T08:40:53.791Z,98742.09
2022-11-22T08:43:21.593Z,98750.22
2022-11-22T08:45:50.267Z,98740.38
2022-11-22T08:48:22.534Z,98746.25
2022-11-22T08:50:52.020Z,98752.19
2022-11-22T08:53:19.830Z,98736.78
2022-11-22T08:55:47.682Z,98745.34
2022-11-22T08:58:15.714Z,98746.69
2022-11-22T09:00:43.443Z,98746.03
2022-11-22T09:03:11.510Z,98747.38
2022-11-22T09:08:31.238Z,98755.25
2022-11-22T09:11:02.537Z,98733.56
2022-11-22T09:13:30.882Z,98753.66
2022-11-22T09:16:02.817Z,98746.44
2022-11-22T09:18:30.630Z,98754.47
2022-11-22T09:21:00.871Z,98747.25
2022-11-22T09:23:28.739Z,98745.31
2022-11-22T09:26:00.038Z,98754.84
2022-11-22T09:28:28.143Z,98734.78
2022-11-22T09:31:00.435Z,98746.13
2022-11-22T09:33:31.257Z,98757.31
2022-11-22T09:36:05.423Z,98763.59
2022-11-22T09:38:34.378Z,98773.78
2022-11-22T09:41:05.870Z,98774.47
2022-11-22T09:43:44.054Z,98769.53
2022-11-22T09:46:37.438Z,98773.19
2022-11-22T09:49:27.171Z,98774.50
2022-11-22T09:52:03.618Z,98770.56
2022-11-22T09:54:38.888Z,98771.53
2022-11-22T09:57:15.320Z,98769.56
2022-11-22T09:59:46.892Z,98776.63
2022-11-22T10:02:20.970Z,98759.03
2022-11-22T10:04:56.159Z,98761.81
2022-11-22T10:07:30.392Z,98752.09
2022-11-22T10:10:05.033Z,98755.53
2022-11-22T10:12:38.609Z,98739.25
2022-11-22T10:15:16.890Z,98738.56
2022-11-22T10:17:53.722Z,98730.34
2022-11-22T10:20:22.757Z,98744.13
2022-11-22T10:22:52.704Z,98738.91
2022-11-22T10:25:22.178Z,98738.56
2022-11-22T10:27:57.665Z,98734.81
2022-11-22T10:30:36.809Z,98728.06
2022-11-22T10:33:19.734Z,98726.09
2022-11-22T10:36:03.393Z,98724.31
2022-11-22T10:38:57.650Z,98717.53
2022-11-22T10:41:46.797Z,98717.06
2022-11-22T10:44:30.149Z,98724.44
2022-11-22T10:47:06.504Z,98716.91
2022-11-22T10:49:48.970Z,98717.88
2022-11-22T10:52:24.670Z,98715.88
2022-11-22T10:55:18.897Z,98710.00
2022-11-22T10:57:54.289Z,98708.31
2022-11-22T11:00:25.786Z,98706.19
2022-11-22T11:03:21.888Z,98699.44
2022-11-22T11:09:36.353Z,98695.94
2022-11-22T11:11:33.761Z,98689.69
2022-11-22T11:14:07.223Z,98688.69
2022-11-22T11:16:38.733Z,98693.31
2022-11-22T11:19:17.303Z,98694.09
2022-11-22T11:21:45.490Z,98683.91
2022-11-22T11:24:15.957Z,98677.28
2022-11-22T11:26:52.860Z,98678.63
2022-11-22T11:29:47.355Z,98676.91
2022-11-22T11:32:17.066Z,98674.53
2022-11-22T11:34:53.341Z,98679.91
2022-11-22T11:37:27.733Z,98688.38
2022-11-22T11:39:55.481Z,98684.44
2022-11-22T11:42:27.839Z,98669.69
2022-11-22T11:44:56.183Z,98677.91
2022-11-22T11:47:34.736Z,98678.91
2022-11-22T11:50:02.557Z,98682.25
2022-11-22T11:52:31.630Z,98669.38
2022-11-22T11:55:01.917Z,98647.38
2022-11-22T11:57:34.901Z,98666.25
2022-11-22T12:00:05.552Z,98668.88
2022-11-22T12:02:39.962Z,98666.44
2022-11-22T12:05:25.195Z,98661.97
2022-11-22T12:07:52.991Z,98665.25
2022-11-22T12:10:33.046Z,98670.03
2022-11-22T12:13:07.058Z,98668.09
2022-11-22T12:15:44.668Z,98666.28
2022-11-22T12:18:28.741Z,98664.09
2022-11-22T12:21:04.325Z,98669.06
2022-11-22T12:23:39.235Z,98672.53
2022-11-22T12:26:07.260Z,98679.09
2022-11-22T12:28:36.604Z,98663.97
2022-11-22T12:31:15.356Z,98692.63
2022-11-22T12:33:45.092Z,98685.72
2022-11-22T12:36:19.326Z,98681.91
2022-11-22T12:38:50.240Z,98677.97
2022-11-22T12:41:21.497Z,98680.59
2022-11-22T12:43:55.622Z,98688.97
2022-11-22T12:46:27.189Z,98684.53
2022-11-22T12:48:57.804Z,98685.19
2022-11-22T12:51:32.036Z,98686.88
2022-11-22T12:54:03.831Z,98665.59
2022-11-22T12:56:37.745Z,98680.78
2022-11-22T12:59:21.238Z,98677.97
2022-11-22T13:01:56.837Z,98677.75
2022-11-22T13:04:31.398Z,98684.19
2022-11-22T13:07:08.263Z,98668.09
2022-11-22T13:09:42.305Z,98673.97
2022-11-22T13:12:14.849Z,98683.41
2022-11-22T13:14:48.503Z,98686.88
2022-11-22T13:17:18.523Z,98682.22
2022-11-22T13:19:50.342Z,98661.03
2022-11-22T13:22:29.265Z,98655.97
2022-11-22T13:25:11.369Z,98678.66
2022-11-22T13:27:44.313Z,98678.47
2022-11-22T13:30:19.599Z,98673.22
2022-11-22T13:32:50.333Z,98662.19
2022-11-22T13:35:27.242Z,98677.78
2022-11-22T13:37:57.835Z,98675.31
2022-11-22T13:40:29.856Z,98668.72
2022-11-22T13:43:32.470Z,98672.69
2022-11-22T13:46:04.074Z,98657.19
2022-11-22T13:49:14.241Z,98661.47
2022-11-22T13:51:54.320Z,98668.56
2022-11-22T13:55:15.162Z,98668.41
2022-11-22T13:57:44.244Z,98668.72
2022-11-22T14:00:40.192Z,98677.63
2022-11-22T14:03:37.166Z,98677.97
2022-11-22T14:06:28.885Z,98673.00
2022-11-22T14:09:16.158Z,98670.06
2022-11-22T14:11:51.709Z,98673.69
2022-11-22T14:14:29.418Z,98670.72
2022-11-22T14:17:07.677Z,98669.06
2022-11-22T14:19:57.259Z,98679.25
2022-11-22T14:22:35.154Z,98668.72
2022-11-22T14:25:23.755Z,98664.78
2022-11-22T14:27:58.743Z,98680.44
2022-11-22T14:30:40.089Z,98675.31
2022-11-22T14:33:16.663Z,98680.41
2022-11-22T14:36:17.411Z,98669.72
2022-11-22T14:38:48.403Z,98674.97
2022-11-22T14:41:42.993Z,98669.56
2022-11-22T14:44:16.276Z,98677.47
2022-11-22T14:46:53.918Z,98670.38
2022-11-22T14:49:31.826Z,98668.75
2022-11-22T14:52:01.466Z,98650.00
2022-11-22T14:54:34.793Z,98661.84
2022-11-22T14:57:08.343Z,98661.19
2022-11-22T14:59:55.191Z,98665.47
2022-11-22T15:02:49.989Z,98668.75
2022-11-22T15:09:11.521Z,98671.03
2022-11-22T15:09:14.161Z,98665.13
2022-11-22T15:11:41.954Z,98670.56
2022-11-22T15:14:54.977Z,98662.53
2022-11-22T15:58:13.679Z,98704.16
2022-11-22T16:00:44.874Z,98703.50
2022-11-22T16:03:22.898Z,98708.59
2022-11-22T16:06:09.641Z,98701.88
2022-11-22T16:08:38.806Z,98702.69
2022-11-22T16:11:07.103Z,98702.03
2022-11-22T16:13:37.083Z,98701.69
2022-11-22T16:16:07.547Z,98704.66
2022-11-22T16:18:35.313Z,98701.69
2022-11-22T16:21:04.269Z,98718.16
2022-11-22T16:23:33.920Z,98716.50
2022-11-22T16:26:18.544Z,98716.19
2022-11-22T16:28:48.355Z,98719.16
2022-11-22T16:31:22.424Z,98710.25
2022-11-22T16:33:51.257Z,98723.75
2022-11-22T16:36:21.216Z,98724.41
2022-11-22T16:38:49.185Z,98725.41
2022-11-22T16:41:20.419Z,98724.75
2022-11-22T16:43:51.045Z,98740.22
2022-11-22T16:46:19.533Z,98739.41
2022-11-22T16:48:47.674Z,98746.16
2022-11-22T16:51:18.014Z,98749.09
2022-11-22T16:53:47.148Z,98753.56
2022-11-22T16:56:20.366Z,98747.00
2022-11-22T16:58:55.295Z,98762.13
2022-11-22T17:01:26.240Z,98750.44
2022-11-22T17:03:56.322Z,98759.63
2022-11-22T17:06:25.795Z,98754.72
2022-11-22T17:08:56.699Z,98763.25
2022-11-22T17:11:26.545Z,98760.47
2022-11-22T17:13:55.764Z,98763.44
2022-11-22T17:16:23.502Z,98774.63
2022-11-22T17:18:52.923Z,98763.25
2022-11-22T17:21:26.113Z,98766.22
2022-11-22T17:23:56.283Z,98768.19
2022-11-22T17:26:27.657Z,98757.84
2022-11-22T17:28:56.903Z,98773.16
2022-11-22T17:31:25.126Z,98774.78
2022-11-22T17:33:54.828Z,98773.78
2022-11-22T17:36:26.664Z,98777.75
2022-11-22T17:38:54.303Z,98780.88
2022-11-22T17:41:21.939Z,98787.31
2022-11-22T17:43:50.122Z,98782.88
2022-11-22T17:46:19.512Z,98786.16
2022-11-22T17:48:52.813Z,98793.22
2022-11-22T17:51:21.523Z,98788.63
2022-11-22T17:53:49.769Z,98784.84
2022-11-22T17:56:17.909Z,98791.94
2022-11-22T17:58:46.045Z,98801.78
2022-11-22T18:01:15.386Z,98790.94
2022-11-22T18:03:44.845Z,98801.97
2022-11-22T18:06:13.562Z,98789.97
2022-11-22T18:08:46.720Z,98800.66
2022-11-22T18:11:15.417Z,98813.31
2022-11-22T18:13:43.347Z,98802.28
2022-11-22T18:16:15.728Z,98807.22
2022-11-22T18:18:56.601Z,98809.03
2022-11-22T18:21:25.381Z,98800.81
2022-11-22T18:23:53.096Z,98803.13
2022-11-22T18:29:39.058Z,98811.34
2022-11-22T18:31:57.535Z,98814.66
2022-11-22T18:34:27.410Z,98806.72
2022-11-22T18:37:02.109Z,98812.66
2022-11-22T18:39:35.835Z,98802.63
2022-11-22T18:42:04.273Z,98806.91
2022-11-22T18:44:32.024Z,98811.66
2022-11-22T18:46:59.797Z,98806.72
2022-11-22T18:49:29.225Z,98798.16
2022-11-22T18:51:57.342Z,98798.16
2022-11-22T18:54:25.263Z,98798.00
2022-11-22T18:56:53.011Z,98793.41
2022-11-22T18:59:20.738Z,98792.25
2022-11-22T19:01:48.526Z,98796.38
2022-11-22T19:04:16.993Z,98807.41
2022-11-22T19:06:46.295Z,98808.69
2022-11-22T19:09:14.073Z,98814.31
2022-11-22T19:11:41.982Z,98805.41
2022-11-22T19:14:09.825Z,98810.66
2022-11-22T19:16:37.529Z,98814.97
2022-11-22T19:19:05.366Z,98816.28
2022-11-22T19:21:33.141Z,98820.38
2022-11-22T19:24:02.223Z,98818.41
2022-11-22T19:26:29.962Z,98814.97
2022-11-22T19:29:02.396Z,98818.75
2022-11-22T19:31:31.200Z,98825.50
2022-11-22T19:33:59.322Z,98828.47
2022-11-22T19:36:34.102Z,98825.19
2022-11-22T19:39:05.167Z,98816.63
2022-11-22T19:41:33.286Z,98815.47
2022-11-22T19:44:01.282Z,98808.03
2022-11-22T19:46:29.926Z,98813.47
2022-11-22T19:48:59.161Z,98809.03
2022-11-22T19:51:28.521Z,98815.63
2022-11-22T19:53:58.723Z,98817.59
2022-11-22T19:56:30.573Z,98820.56
2022-11-22T19:58:59.905Z,98828.78
2022-11-22T20:01:29.779Z,98823.50
2022-11-22T20:03:59.719Z,98824.50
2022-11-22T20:06:28.201Z,98835.84
2022-11-22T20:09:01.434Z,98833.88
2022-11-22T20:11:30.537Z,98835.53
2022-11-22T20:13:59.126Z,98827.47
2022-11-22T20:16:28.841Z,98838.16
2022-11-22T20:18:58.037Z,98840.13
2022-11-22T20:21:28.310Z,98839.97
2022-11-22T20:23:56.845Z,98841.63
2022-11-22T20:26:26.957Z,98842.28
2022-11-22T20:28:57.790Z,98844.91
2022-11-22T20:31:26.144Z,98841.94
2022-11-22T20:33:55.239Z,98834.38
2022-11-22T20:36:24.899Z,98846.91
2022-11-22T20:38:53.327Z,98843.59
2022-11-22T20:41:26.127Z,98837.66
2022-11-22T20:43:58.582Z,98846.91
2022-11-22T20:46:28.177Z,98845.56
2022-11-22T20:49:01.707Z,98850.19
2022-11-22T20:51:30.252Z,98840.97
2022-11-22T20:53:58.430Z,98844.09
2022-11-22T20:56:26.273Z,98849.53
2022-11-22T20:58:54.181Z,98849.34
2022-11-22T21:01:24.953Z,98855.28
2022-11-22T21:03:54.439Z,98856.44
2022-11-22T21:06:24.592Z,98840.47
2022-11-22T21:08:56.096Z,98859.56
2022-11-22T21:11:26.625Z,98857.75
2022-11-22T21:13:56.059Z,98855.13
2022-11-22T21:16:29.273Z,98862.88
2022-11-22T21:18:59.337Z,98861.69
2022-11-22T21:21:27.778Z,98861.53
2022-11-22T21:24:00.423Z,98875.53
2022-11-22T21:26:28.988Z,98861.22
2022-11-22T21:28:57.580Z,98866.97
2022-11-22T21:31:27.275Z,98863.03
2022-11-22T21:33:55.230Z,98873.06
2022-11-22T21:36:23.377Z,98852.34
2022-11-22T21:38:51.126Z,98879.84
2022-11-22T21:44:08.332Z,98872.25
2022-11-22T21:46:37.487Z,98876.53
2022-11-22T21:49:05.301Z,98872.41
2022-11-22T21:51:33.155Z,98885.56
2022-11-22T21:54:02.262Z,98875.22
2022-11-22T21:56:31.396Z,98861.53
2022-11-22T21:58:59.183Z,98887.22
2022-11-22T22:01:27.066Z,98879.50
2022-11-22T22:03:56.274Z,98882.75
2022-11-22T22:06:25.017Z,98879.50
2022-11-22T22:08:52.787Z,98871.91
2022-11-22T22:11:20.548Z,98881.78
2022-11-22T22:13:48.393Z,98878.69
2022-11-22T22:16:19.100Z,98876.69
2022-11-22T22:18:47.440Z,98879.16
2022-11-22T22:21:18.686Z,98879.81
2022-11-22T22:23:47.186Z,98881.78
2022-11-22T22:26:16.668Z,98879.16
2022-11-22T22:28:45.789Z,98862.19
2022-11-22T22:31:16.733Z,98883.59
2022-11-22T22:33:45.516Z,98882.75
2022-11-22T22:36:14.089Z,98881.16
2022-11-22T22:38:43.186Z,98887.03
2022-11-22T22:41:13.245Z,98889.69
2022-11-22T22:43:43.095Z,98890.03
2022-11-22T22:46:14.150Z,98869.28
2022-11-22T22:48:42.883Z,98893.16
2022-11-22T22:51:13.855Z,98894.47
2022-11-22T22:53:43.595Z,98894.66
2022-11-22T22:56:12.464Z,98888.72
2022-11-22T22:58:40.350Z,98900.91
2022-11-22T23:01:09.814Z,98893.66
2022-11-22T23:03:38.018Z,98902.19
2022-11-22T23:06:07.596Z,98891.66
2022-11-22T23:08:35.848Z,98896.47
2022-11-22T23:11:06.886Z,98909.13
2022-11-22T23:13:35.763Z,98904.38
2022-11-22T23:16:03.984Z,98914.38
2022-11-22T23:18:32.242Z,98904.19
2022-11-22T23:21:00.460Z,98911.44
2022-11-22T23:23:28.630Z,98899.41
2022-11-22T23:25:56.574Z,98912.09
2022-11-22T23:28:25.629Z,98915.72
2022-11-22T23:30:53.380Z,98915.72
2022-11-22T23:33:21.163Z,98919.00
2022-11-22T23:35:48.889Z,98914.56
2022-11-22T23:38:16.602Z,98924.94
2022-11-22T23:40:44.330Z,98928.44
2022-11-22T23:43:12.054Z,98927.28
2022-11-22T23:45:46.279Z,98924.00
2022-11-22T23:48:14.034Z,98930.75
2022-11-22T23:50:41.911Z,98933.03
2022-11-22T23:53:09.741Z,98927.59
2022-11-22T23:55:37.501Z,98931.56
2022-11-22T23:58:05.223Z,98933.03
